sensor_id;sensor_type;location;lat;lon;timestamp;temperature;humidity
29721;DHT22;23665;51.044;3.748;2023-01-16T00:02:08;5.70;99.90
29721;DHT22;23665;51.044;3.748;2023-01-16T00:04:34;5.70;99.90
29721;DHT22;23665;51.044;3.748;2023-01-16T00:07:00;5.70;99.90
29721;DHT22;23665;51.044;3.748;2023-01-16T00:09:26;5.70;99.90
29721;DHT22;23665;51.044;3.748;2023-01-16T00:11:52;5.70;99.90
29721;DHT22;23665;51.044;3.748;2023-01-16T00:14:17;5.60;99.90
29721;DHT22;23665;51.044;3.748;2023-01-16T00:16:43;5.60;99.90
29721;DHT22;23665;51.044;3.748;2023-01-16T00:19:09;5.60;99.90
29721;DHT22;23665;51.044;3.748;2023-01-16T00:21:34;5.70;99.90
29721;DHT22;23665;51.044;3.748;2023-01-16T00:24:00;5.70;99.90
29721;DHT22;23665;51.044;3.748;2023-01-16T00:26:27;5.80;99.90
29721;DHT22;23665;51.044;3.748;2023-01-16T00:28:53;5.80;99.90
29721;DHT22;23665;51.044;3.748;2023-01-16T00:31:19;5.80;99.90
29721;DHT22;23665;51.044;3.748;2023-01-16T00:33:45;5.80;99.90
29721;DHT22;23665;51.044;3.748;2023-01-16T00:36:12;5.80;99.90
29721;DHT22;23665;51.044;3.748;2023-01-16T00:38:38;5.80;99.90
29721;DHT22;23665;51.044;3.748;2023-01-16T00:41:04;5.80;99.90
29721;DHT22;23665;51.044;3.748;2023-01-16T00:43:31;5.90;99.90
29721;DHT22;23665;51.044;3.748;2023-01-16T00:45:56;5.90;99.90
29721;DHT22;23665;51.044;3.748;2023-01-16T00:48:22;6.00;99.90
29721;DHT22;23665;51.044;3.748;2023-01-16T00:50:49;5.90;99.90
29721;DHT22;23665;51.044;3.748;2023-01-16T00:53:15;5.90;99.90
29721;DHT22;23665;51.044;3.748;2023-01-16T00:55:41;5.90;99.90
29721;DHT22;23665;51.044;3.748;2023-01-16T00:58:10;5.90;99.90
29721;DHT22;23665;51.044;3.748;2023-01-16T01:00:36;5.90;99.90
29721;DHT22;23665;51.044;3.748;2023-01-16T01:03:03;5.90;99.90
29721;DHT22;23665;51.044;3.748;2023-01-16T01:05:29;6.00;99.90
29721;DHT22;23665;51.044;3.748;2023-01-16T01:07:55;6.00;99.90
29721;DHT22;23665;51.044;3.748;2023-01-16T01:10:21;5.90;99.90
29721;DHT22;23665;51.044;3.748;2023-01-16T01:12:46;5.80;99.90
29721;DHT22;23665;51.044;3.748;2023-01-16T01:15:12;5.80;99.90
29721;DHT22;23665;51.044;3.748;2023-01-16T01:17:38;6.00;99.90
29721;DHT22;23665;51.044;3.748;2023-01-16T01:20:04;6.00;99.90
29721;DHT22;23665;51.044;3.748;2023-01-16T01:22:30;6.10;99.90
29721;DHT22;23665;51.044;3.748;2023-01-16T01:24:56;6.10;99.90
29721;DHT22;23665;51.044;3.748;2023-01-16T01:27:22;6.10;99.90
29721;DHT22;23665;51.044;3.748;2023-01-16T01:29:47;6.10;99.90
29721;DHT22;23665;51.044;3.748;2023-01-16T01:32:13;6.10;99.90
29721;DHT22;23665;51.044;3.748;2023-01-16T01:34:39;6.00;99.90
29721;DHT22;23665;51.044;3.748;2023-01-16T01:37:06;5.90;99.90
29721;DHT22;23665;51.044;3.748;2023-01-16T01:39:33;6.10;99.90
29721;DHT22;23665;51.044;3.748;2023-01-16T01:41:59;6.10;99.90
29721;DHT22;23665;51.044;3.748;2023-01-16T01:44:55;6.10;99.90
29721;DHT22;23665;51.044;3.748;2023-01-16T01:47:32;6.10;99.90
29721;DHT22;23665;51.044;3.748;2023-01-16T01:50:03;6.20;99.90
29721;DHT22;23665;51.044;3.748;2023-01-16T01:52:30;6.20;99.90
29721;DHT22;23665;51.044;3.748;2023-01-16T01:55:02;6.20;99.90
29721;DHT22;23665;51.044;3.748;2023-01-16T01:57:38;6.30;99.90
29721;DHT22;23665;51.044;3.748;2023-01-16T02:00:12;6.20;99.90
29721;DHT22;23665;51.044;3.748;2023-01-16T02:05:33;6.20;99.90
29721;DHT22;23665;51.044;3.748;2023-01-16T02:08:00;6.10;99.90
29721;DHT22;23665;51.044;3.748;2023-01-16T02:10:35;6.10;99.90
29721;DHT22;23665;51.044;3.748;2023-01-16T02:13:02;6.10;99.90
29721;DHT22;23665;51.044;3.748;2023-01-16T02:15:29;6.10;99.90
29721;DHT22;23665;51.044;3.748;2023-01-16T02:17:55;6.10;99.90
29721;DHT22;23665;51.044;3.748;2023-01-16T02:20:47;6.20;99.90
29721;DHT22;23665;51.044;3.748;2023-01-16T02:23:56;6.30;99.90
29721;DHT22;23665;51.044;3.748;2023-01-16T02:32:39;6.50;99.90
29721;DHT22;23665;51.044;3.748;2023-01-16T02:35:29;6.30;99.90
29721;DHT22;23665;51.044;3.748;2023-01-16T02:40:54;6.60;99.90
29721;DHT22;23665;51.044;3.748;2023-01-16T02:54:28;6.80;99.90
29721;DHT22;23665;51.044;3.748;2023-01-16T02:57:03;6.80;99.90
29721;DHT22;23665;51.044;3.748;2023-01-16T02:59:32;6.80;99.90
29721;DHT22;23665;51.044;3.748;2023-01-16T03:02:00;6.70;99.90
29721;DHT22;23665;51.044;3.748;2023-01-16T03:04:42;6.80;99.90
29721;DHT22;23665;51.044;3.748;2023-01-16T03:12:55;6.70;99.90
29721;DHT22;23665;51.044;3.748;2023-01-16T03:24:38;6.90;99.90
29721;DHT22;23665;51.044;3.748;2023-01-16T03:27:16;6.70;99.90
29721;DHT22;23665;51.044;3.748;2023-01-16T03:29:58;6.60;99.90
29721;DHT22;23665;51.044;3.748;2023-01-16T03:32:43;6.70;99.90
29721;DHT22;23665;51.044;3.748;2023-01-16T03:35:21;6.70;99.90
29721;DHT22;23665;51.044;3.748;2023-01-16T03:37:54;6.70;99.90
29721;DHT22;23665;51.044;3.748;2023-01-16T03:40:33;6.70;99.90
29721;DHT22;23665;51.044;3.748;2023-01-16T03:43:07;6.80;99.90
29721;DHT22;23665;51.044;3.748;2023-01-16T03:45:43;6.80;99.90
29721;DHT22;23665;51.044;3.748;2023-01-16T03:48:47;6.80;99.90
29721;DHT22;23665;51.044;3.748;2023-01-16T03:51:08;6.90;99.90
29721;DHT22;23665;51.044;3.748;2023-01-16T03:53:43;6.90;99.90
29721;DHT22;23665;51.044;3.748;2023-01-16T03:58:45;6.80;99.90
29721;DHT22;23665;51.044;3.748;2023-01-16T04:03:58;6.80;99.90
29721;DHT22;23665;51.044;3.748;2023-01-16T04:09:17;6.70;99.90
29721;DHT22;23665;51.044;3.748;2023-01-16T04:11:44;6.70;99.90
29721;DHT22;23665;51.044;3.748;2023-01-16T04:14:14;6.70;99.90
29721;DHT22;23665;51.044;3.748;2023-01-16T04:16:41;6.50;99.90
29721;DHT22;23665;51.044;3.748;2023-01-16T04:19:11;6.50;99.90
29721;DHT22;23665;51.044;3.748;2023-01-16T04:21:37;6.40;99.90
29721;DHT22;23665;51.044;3.748;2023-01-16T04:24:03;6.40;99.90
29721;DHT22;23665;51.044;3.748;2023-01-16T04:26:29;6.40;99.90
29721;DHT22;23665;51.044;3.748;2023-01-16T04:28:55;6.50;99.90
29721;DHT22;23665;51.044;3.748;2023-01-16T04:31:23;6.50;99.90
29721;DHT22;23665;51.044;3.748;2023-01-16T04:33:49;6.40;99.90
29721;DHT22;23665;51.044;3.748;2023-01-16T04:36:15;6.40;99.90
29721;DHT22;23665;51.044;3.748;2023-01-16T04:38:40;6.40;99.90
29721;DHT22;23665;51.044;3.748;2023-01-16T04:41:06;6.30;99.90
29721;DHT22;23665;51.044;3.748;2023-01-16T04:43:32;6.20;99.90
29721;DHT22;23665;51.044;3.748;2023-01-16T04:45:57;6.20;99.90
29721;DHT22;23665;51.044;3.748;2023-01-16T04:48:23;6.30;99.90
29721;DHT22;23665;51.044;3.748;2023-01-16T04:50:49;6.40;99.90
29721;DHT22;23665;51.044;3.748;2023-01-16T04:53:15;6.30;99.90
29721;DHT22;23665;51.044;3.748;2023-01-16T04:55:41;6.20;99.90
29721;DHT22;23665;51.044;3.748;2023-01-16T04:58:06;6.30;99.90
29721;DHT22;23665;51.044;3.748;2023-01-16T05:00:32;6.40;99.90
29721;DHT22;23665;51.044;3.748;2023-01-16T05:02:58;6.30;99.90
29721;DHT22;23665;51.044;3.748;2023-01-16T05:05:24;6.30;99.90
29721;DHT22;23665;51.044;3.748;2023-01-16T05:07:50;6.40;99.90
29721;DHT22;23665;51.044;3.748;2023-01-16T05:10:36;6.50;99.90
29721;DHT22;23665;51.044;3.748;2023-01-16T05:13:02;6.40;99.90
29721;DHT22;23665;51.044;3.748;2023-01-16T05:15:29;6.40;99.90
29721;DHT22;23665;51.044;3.748;2023-01-16T05:17:54;6.40;99.90
29721;DHT22;23665;51.044;3.748;2023-01-16T05:20:21;6.40;99.90
29721;DHT22;23665;51.044;3.748;2023-01-16T05:22:47;6.50;99.90
29721;DHT22;23665;51.044;3.748;2023-01-16T05:25:13;6.50;99.90
29721;DHT22;23665;51.044;3.748;2023-01-16T05:27:39;6.40;99.90
29721;DHT22;23665;51.044;3.748;2023-01-16T05:30:05;6.50;99.90
29721;DHT22;23665;51.044;3.748;2023-01-16T05:32:31;6.50;99.90
29721;DHT22;23665;51.044;3.748;2023-01-16T05:34:56;6.70;99.90
29721;DHT22;23665;51.044;3.748;2023-01-16T05:37:26;6.60;99.90
29721;DHT22;23665;51.044;3.748;2023-01-16T05:39:51;6.60;99.90
29721;DHT22;23665;51.044;3.748;2023-01-16T05:42:17;6.60;99.90
29721;DHT22;23665;51.044;3.748;2023-01-16T05:44:51;6.50;99.90
29721;DHT22;23665;51.044;3.748;2023-01-16T05:47:20;6.50;99.90
29721;DHT22;23665;51.044;3.748;2023-01-16T05:49:47;6.50;99.90
29721;DHT22;23665;51.044;3.748;2023-01-16T05:52:13;6.60;99.90
29721;DHT22;23665;51.044;3.748;2023-01-16T05:54:39;6.70;99.90
29721;DHT22;23665;51.044;3.748;2023-01-16T05:57:05;6.60;99.90
29721;DHT22;23665;51.044;3.748;2023-01-16T05:59:31;6.60;99.90
29721;DHT22;23665;51.044;3.748;2023-01-16T06:01:57;6.60;99.90
29721;DHT22;23665;51.044;3.748;2023-01-16T06:04:23;6.70;99.90
29721;DHT22;23665;51.044;3.748;2023-01-16T06:06:49;6.70;99.90
29721;DHT22;23665;51.044;3.748;2023-01-16T06:09:15;6.60;99.90
29721;DHT22;23665;51.044;3.748;2023-01-16T06:11:40;6.60;99.90
29721;DHT22;23665;51.044;3.748;2023-01-16T06:14:06;6.50;99.90
29721;DHT22;23665;51.044;3.748;2023-01-16T06:16:32;6.50;99.90
29721;DHT22;23665;51.044;3.748;2023-01-16T06:18:58;6.60;99.90
29721;DHT22;23665;51.044;3.748;2023-01-16T06:21:24;6.60;99.90
29721;DHT22;23665;51.044;3.748;2023-01-16T06:23:50;6.60;99.90
29721;DHT22;23665;51.044;3.748;2023-01-16T06:26:16;6.80;99.90
29721;DHT22;23665;51.044;3.748;2023-01-16T06:28:42;6.70;99.90
29721;DHT22;23665;51.044;3.748;2023-01-16T06:31:08;6.50;99.90
29721;DHT22;23665;51.044;3.748;2023-01-16T06:33:34;6.40;99.90
29721;DHT22;23665;51.044;3.748;2023-01-16T06:36:00;6.40;99.90
29721;DHT22;23665;51.044;3.748;2023-01-16T06:38:26;6.40;99.90
29721;DHT22;23665;51.044;3.748;2023-01-16T06:40:52;6.40;99.90
29721;DHT22;23665;51.044;3.748;2023-01-16T06:43:25;6.50;99.90
29721;DHT22;23665;51.044;3.748;2023-01-16T06:45:52;6.70;99.90
29721;DHT22;23665;51.044;3.748;2023-01-16T06:48:18;6.60;99.90
29721;DHT22;23665;51.044;3.748;2023-01-16T06:50:44;6.60;99.90
29721;DHT22;23665;51.044;3.748;2023-01-16T06:53:11;6.60;99.90
29721;DHT22;23665;51.044;3.748;2023-01-16T06:55:37;6.50;99.90
29721;DHT22;23665;51.044;3.748;2023-01-16T06:58:03;6.50;99.90
29721;DHT22;23665;51.044;3.748;2023-01-16T07:00:29;6.40;99.90
29721;DHT22;23665;51.044;3.748;2023-01-16T07:02:56;6.40;99.90
29721;DHT22;23665;51.044;3.748;2023-01-16T07:05:24;6.40;99.90
29721;DHT22;23665;51.044;3.748;2023-01-16T07:07:50;6.40;99.90
29721;DHT22;23665;51.044;3.748;2023-01-16T07:10:17;6.40;99.90
29721;DHT22;23665;51.044;3.748;2023-01-16T07:12:42;6.50;99.90
29721;DHT22;23665;51.044;3.748;2023-01-16T07:15:09;6.40;99.90
29721;DHT22;23665;51.044;3.748;2023-01-16T07:17:53;6.60;99.90
29721;DHT22;23665;51.044;3.748;2023-01-16T07:20:37;6.60;99.90
29721;DHT22;23665;51.044;3.748;2023-01-16T07:23:27;6.70;99.90
29721;DHT22;23665;51.044;3.748;2023-01-16T07:25:56;6.70;99.90
29721;DHT22;23665;51.044;3.748;2023-01-16T07:28:24;6.60;99.90
29721;DHT22;23665;51.044;3.748;2023-01-16T07:30:50;6.50;99.90
29721;DHT22;23665;51.044;3.748;2023-01-16T07:33:16;6.60;99.90
29721;DHT22;23665;51.044;3.748;2023-01-16T07:35:42;6.60;99.90
29721;DHT22;23665;51.044;3.748;2023-01-16T07:38:09;6.60;99.90
29721;DHT22;23665;51.044;3.748;2023-01-16T07:40:34;6.50;99.90
29721;DHT22;23665;51.044;3.748;2023-01-16T07:43:00;6.60;99.90
29721;DHT22;23665;51.044;3.748;2023-01-16T07:45:26;6.60;99.90
29721;DHT22;23665;51.044;3.748;2023-01-16T07:47:51;6.70;99.90
29721;DHT22;23665;51.044;3.748;2023-01-16T07:50:17;6.90;99.90
29721;DHT22;23665;51.044;3.748;2023-01-16T07:52:43;6.80;99.90
29721;DHT22;23665;51.044;3.748;2023-01-16T07:55:10;6.90;99.90
29721;DHT22;23665;51.044;3.748;2023-01-16T07:57:37;7.00;99.90
29721;DHT22;23665;51.044;3.748;2023-01-16T08:00:04;7.00;99.90
29721;DHT22;23665;51.044;3.748;2023-01-16T08:02:30;7.00;99.90
29721;DHT22;23665;51.044;3.748;2023-01-16T08:04:56;7.00;99.90
29721;DHT22;23665;51.044;3.748;2023-01-16T08:07:22;7.00;99.90
29721;DHT22;23665;51.044;3.748;2023-01-16T08:09:48;7.00;99.90
29721;DHT22;23665;51.044;3.748;2023-01-16T08:12:13;7.10;99.90
29721;DHT22;23665;51.044;3.748;2023-01-16T08:14:39;7.20;99.90
29721;DHT22;23665;51.044;3.748;2023-01-16T08:17:05;7.10;99.90
29721;DHT22;23665;51.044;3.748;2023-01-16T08:19:31;7.00;99.90
29721;DHT22;23665;51.044;3.748;2023-01-16T08:21:57;7.10;99.90
29721;DHT22;23665;51.044;3.748;2023-01-16T08:24:22;7.00;99.90
29721;DHT22;23665;51.044;3.748;2023-01-16T08:26:51;7.20;99.90
29721;DHT22;23665;51.044;3.748;2023-01-16T08:29:17;7.40;99.90
29721;DHT22;23665;51.044;3.748;2023-01-16T08:31:43;7.40;99.90
29721;DHT22;23665;51.044;3.748;2023-01-16T08:34:08;7.40;99.90
29721;DHT22;23665;51.044;3.748;2023-01-16T08:36:35;7.40;99.90
29721;DHT22;23665;51.044;3.748;2023-01-16T08:39:01;7.50;99.90
29721;DHT22;23665;51.044;3.748;2023-01-16T08:41:27;7.50;99.90
29721;DHT22;23665;51.044;3.748;2023-01-16T08:44:12;7.60;99.90
29721;DHT22;23665;51.044;3.748;2023-01-16T08:46:59;7.50;99.90
29721;DHT22;23665;51.044;3.748;2023-01-16T08:49:45;7.60;99.90
29721;DHT22;23665;51.044;3.748;2023-01-16T08:52:30;7.50;99.90
29721;DHT22;23665;51.044;3.748;2023-01-16T08:54:57;7.50;99.90
29721;DHT22;23665;51.044;3.748;2023-01-16T08:57:24;7.60;99.90
29721;DHT22;23665;51.044;3.748;2023-01-16T08:59:50;7.50;99.90
29721;DHT22;23665;51.044;3.748;2023-01-16T09:02:16;7.40;99.90
29721;DHT22;23665;51.044;3.748;2023-01-16T09:04:41;7.40;99.90
29721;DHT22;23665;51.044;3.748;2023-01-16T09:07:09;7.50;99.90
29721;DHT22;23665;51.044;3.748;2023-01-16T09:09:35;7.50;99.90
29721;DHT22;23665;51.044;3.748;2023-01-16T09:12:00;7.40;99.90
29721;DHT22;23665;51.044;3.748;2023-01-16T09:14:44;7.50;99.90
29721;DHT22;23665;51.044;3.748;2023-01-16T09:17:10;7.40;99.90
29721;DHT22;23665;51.044;3.748;2023-01-16T09:19:36;7.30;99.90
29721;DHT22;23665;51.044;3.748;2023-01-16T09:22:03;7.20;99.90
29721;DHT22;23665;51.044;3.748;2023-01-16T09:24:33;7.30;99.90
29721;DHT22;23665;51.044;3.748;2023-01-16T09:27:00;7.30;99.90
29721;DHT22;23665;51.044;3.748;2023-01-16T09:29:26;7.30;99.90
29721;DHT22;23665;51.044;3.748;2023-01-16T09:31:52;7.40;99.90
29721;DHT22;23665;51.044;3.748;2023-01-16T09:34:18;7.30;99.90
29721;DHT22;23665;51.044;3.748;2023-01-16T09:36:44;7.30;99.90
29721;DHT22;23665;51.044;3.748;2023-01-16T09:39:09;7.50;99.90
29721;DHT22;23665;51.044;3.748;2023-01-16T09:41:45;7.40;99.90
29721;DHT22;23665;51.044;3.748;2023-01-16T09:44:33;7.30;99.90
29721;DHT22;23665;51.044;3.748;2023-01-16T09:47:00;7.20;99.90
29721;DHT22;23665;51.044;3.748;2023-01-16T09:49:35;7.20;99.90
29721;DHT22;23665;51.044;3.748;2023-01-16T09:52:09;7.20;99.90
29721;DHT22;23665;51.044;3.748;2023-01-16T09:54:58;7.40;99.90
29721;DHT22;23665;51.044;3.748;2023-01-16T09:57:44;7.30;99.90
29721;DHT22;23665;51.044;3.748;2023-01-16T10:00:30;7.30;99.90
29721;DHT22;23665;51.044;3.748;2023-01-16T10:02:56;7.40;99.90
29721;DHT22;23665;51.044;3.748;2023-01-16T10:05:24;7.50;99.90
29721;DHT22;23665;51.044;3.748;2023-01-16T10:10:57;7.40;99.90
29721;DHT22;23665;51.044;3.748;2023-01-16T10:27:17;7.80;99.90
29721;DHT22;23665;51.044;3.748;2023-01-16T10:29:57;7.70;99.90
29721;DHT22;23665;51.044;3.748;2023-01-16T10:32:38;7.70;99.90
29721;DHT22;23665;51.044;3.748;2023-01-16T10:35:23;7.70;99.90
29721;DHT22;23665;51.044;3.748;2023-01-16T10:37:50;7.60;99.90
29721;DHT22;23665;51.044;3.748;2023-01-16T10:42:48;7.60;99.90
29721;DHT22;23665;51.044;3.748;2023-01-16T10:45:36;7.40;99.90
29721;DHT22;23665;51.044;3.748;2023-01-16T10:48:21;7.50;99.90
29721;DHT22;23665;51.044;3.748;2023-01-16T10:51:06;7.40;99.90
29721;DHT22;23665;51.044;3.748;2023-01-16T10:53:34;7.90;99.90
29721;DHT22;23665;51.044;3.748;2023-01-16T10:56:01;8.10;99.90
29721;DHT22;23665;51.044;3.748;2023-01-16T10:58:35;8.10;99.90
29721;DHT22;23665;51.044;3.748;2023-01-16T11:01:19;8.20;99.90
29721;DHT22;23665;51.044;3.748;2023-01-16T11:03:58;8.40;99.90
29721;DHT22;23665;51.044;3.748;2023-01-16T11:06:26;8.40;99.90
29721;DHT22;23665;51.044;3.748;2023-01-16T11:09:00;8.40;99.90
29721;DHT22;23665;51.044;3.748;2023-01-16T11:11:27;8.60;99.90
29721;DHT22;23665;51.044;3.748;2023-01-16T11:14:21;8.50;99.90
29721;DHT22;23665;51.044;3.748;2023-01-16T11:17:26;8.40;99.90
29721;DHT22;23665;51.044;3.748;2023-01-16T11:20:16;8.40;99.90
29721;DHT22;23665;51.044;3.748;2023-01-16T11:22:52;8.40;99.90
29721;DHT22;23665;51.044;3.748;2023-01-16T11:25:22;8.50;99.90
29721;DHT22;23665;51.044;3.748;2023-01-16T11:27:49;8.60;99.90
29721;DHT22;23665;51.044;3.748;2023-01-16T11:30:22;8.70;99.90
29721;DHT22;23665;51.044;3.748;2023-01-16T11:32:53;8.80;99.90
29721;DHT22;23665;51.044;3.748;2023-01-16T11:35:20;9.00;99.90
29721;DHT22;23665;51.044;3.748;2023-01-16T11:37:51;9.00;99.90
29721;DHT22;23665;51.044;3.748;2023-01-16T11:40:23;9.00;99.90
29721;DHT22;23665;51.044;3.748;2023-01-16T11:42:56;8.90;99.90
29721;DHT22;23665;51.044;3.748;2023-01-16T11:45:46;8.90;99.90
29721;DHT22;23665;51.044;3.748;2023-01-16T11:48:41;9.00;99.90
29721;DHT22;23665;51.044;3.748;2023-01-16T11:51:14;8.90;99.90
29721;DHT22;23665;51.044;3.748;2023-01-16T11:53:43;8.50;99.90
29721;DHT22;23665;51.044;3.748;2023-01-16T12:04:23;8.20;99.90
29721;DHT22;23665;51.044;3.748;2023-01-16T12:07:23;8.20;99.90
29721;DHT22;23665;51.044;3.748;2023-01-16T12:10:28;8.20;99.90
29721;DHT22;23665;51.044;3.748;2023-01-16T12:13:03;8.20;99.90
29721;DHT22;23665;51.044;3.748;2023-01-16T12:16:07;8.40;99.90
29721;DHT22;23665;51.044;3.748;2023-01-16T12:18:41;8.50;99.90
29721;DHT22;23665;51.044;3.748;2023-01-16T12:26:48;8.90;99.90
29721;DHT22;23665;51.044;3.748;2023-01-16T12:35:18;9.20;99.90
29721;DHT22;23665;51.044;3.748;2023-01-16T12:44:30;8.70;99.90
29721;DHT22;23665;51.044;3.748;2023-01-16T12:57:52;8.70;99.90
29721;DHT22;23665;51.044;3.748;2023-01-16T13:00:24;8.80;99.90
29721;DHT22;23665;51.044;3.748;2023-01-16T13:03:20;8.70;99.90
29721;DHT22;23665;51.044;3.748;2023-01-16T13:05:48;8.70;99.90
29721;DHT22;23665;51.044;3.748;2023-01-16T13:08:34;8.60;99.90
29721;DHT22;23665;51.044;3.748;2023-01-16T13:11:07;8.60;99.90
29721;DHT22;23665;51.044;3.748;2023-01-16T13:14:05;8.60;99.90
29721;DHT22;23665;51.044;3.748;2023-01-16T13:16:34;8.50;99.90
29721;DHT22;23665;51.044;3.748;2023-01-16T13:19:23;8.60;99.90
29721;DHT22;23665;51.044;3.748;2023-01-16T13:21:52;8.60;99.90
29721;DHT22;23665;51.044;3.748;2023-01-16T13:24:36;8.50;99.90
29721;DHT22;23665;51.044;3.748;2023-01-16T13:27:13;8.50;99.90
29721;DHT22;23665;51.044;3.748;2023-01-16T13:29:48;8.60;99.90
29721;DHT22;23665;51.044;3.748;2023-01-16T13:32:48;8.60;99.90
29721;DHT22;23665;51.044;3.748;2023-01-16T13:41:11;8.60;99.90
29721;DHT22;23665;51.044;3.748;2023-01-16T13:43:45;8.40;99.90
29721;DHT22;23665;51.044;3.748;2023-01-16T13:46:33;8.10;99.90
29721;DHT22;23665;51.044;3.748;2023-01-16T13:49:01;8.10;99.90
29721;DHT22;23665;51.044;3.748;2023-01-16T13:51:28;8.20;99.90
29721;DHT22;23665;51.044;3.748;2023-01-16T13:53:59;8.20;99.90
29721;DHT22;23665;51.044;3.748;2023-01-16T13:56:30;8.20;99.90
29721;DHT22;23665;51.044;3.748;2023-01-16T13:59:20;8.30;99.90
29721;DHT22;23665;51.044;3.748;2023-01-16T14:01:53;8.30;99.90
29721;DHT22;23665;51.044;3.748;2023-01-16T14:06:59;8.30;99.90
29721;DHT22;23665;51.044;3.748;2023-01-16T14:12:33;8.30;99.90
29721;DHT22;23665;51.044;3.748;2023-01-16T14:15:22;8.10;99.90
29721;DHT22;23665;51.044;3.748;2023-01-16T14:18:20;8.20;99.90
29721;DHT22;23665;51.044;3.748;2023-01-16T14:20:51;8.30;99.90
29721;DHT22;23665;51.044;3.748;2023-01-16T14:23:25;8.30;99.90
29721;DHT22;23665;51.044;3.748;2023-01-16T14:29:12;8.00;99.90
29721;DHT22;23665;51.044;3.748;2023-01-16T14:31:44;7.30;99.90
29721;DHT22;23665;51.044;3.748;2023-01-16T14:34:21;7.20;99.90
29721;DHT22;23665;51.044;3.748;2023-01-16T14:36:50;7.00;99.90
29721;DHT22;23665;51.044;3.748;2023-01-16T14:39:33;6.90;99.90
29721;DHT22;23665;51.044;3.748;2023-01-16T14:42:13;6.80;99.90
29721;DHT22;23665;51.044;3.748;2023-01-16T14:45:29;6.80;99.90
29721;DHT22;23665;51.044;3.748;2023-01-16T14:48:35;6.50;99.90
29721;DHT22;23665;51.044;3.748;2023-01-16T14:51:34;6.50;99.90
29721;DHT22;23665;51.044;3.748;2023-01-16T14:54:32;6.50;99.90
29721;DHT22;23665;51.044;3.748;2023-01-16T14:57:20;6.40;99.90
29721;DHT22;23665;51.044;3.748;2023-01-16T15:00:10;6.50;99.90
29721;DHT22;23665;51.044;3.748;2023-01-16T15:03:12;6.50;99.90
29721;DHT22;23665;51.044;3.748;2023-01-16T15:05:56;6.40;99.90
29721;DHT22;23665;51.044;3.748;2023-01-16T15:10:51;6.40;99.90
29721;DHT22;23665;51.044;3.748;2023-01-16T15:13:29;6.30;99.90
29721;DHT22;23665;51.044;3.748;2023-01-16T15:16:18;6.40;99.90
29721;DHT22;23665;51.044;3.748;2023-01-16T15:19:22;6.30;99.90
29721;DHT22;23665;51.044;3.748;2023-01-16T15:22:41;6.40;99.90
29721;DHT22;23665;51.044;3.748;2023-01-16T15:30:38;6.70;99.90
29721;DHT22;23665;51.044;3.748;2023-01-16T15:33:04;6.60;99.90
29721;DHT22;23665;51.044;3.748;2023-01-16T15:36:09;6.60;99.90
29721;DHT22;23665;51.044;3.748;2023-01-16T15:38:38;6.60;99.90
29721;DHT22;23665;51.044;3.748;2023-01-16T15:41:03;6.50;99.90
29721;DHT22;23665;51.044;3.748;2023-01-16T15:43:30;6.50;99.90
29721;DHT22;23665;51.044;3.748;2023-01-16T15:49:26;6.70;99.90
29721;DHT22;23665;51.044;3.748;2023-01-16T15:51:54;6.60;99.90
29721;DHT22;23665;51.044;3.748;2023-01-16T15:54:21;6.60;99.90
29721;DHT22;23665;51.044;3.748;2023-01-16T15:56:47;6.70;99.90
29721;DHT22;23665;51.044;3.748;2023-01-16T15:59:24;6.60;99.90
29721;DHT22;23665;51.044;3.748;2023-01-16T16:01:50;6.60;99.90
29721;DHT22;23665;51.044;3.748;2023-01-16T16:04:16;6.50;99.90
29721;DHT22;23665;51.044;3.748;2023-01-16T16:06:42;6.50;99.90
29721;DHT22;23665;51.044;3.748;2023-01-16T16:09:22;6.50;99.90
29721;DHT22;23665;51.044;3.748;2023-01-16T16:11:50;6.50;99.90
29721;DHT22;23665;51.044;3.748;2023-01-16T16:20:31;6.60;99.90
29721;DHT22;23665;51.044;3.748;2023-01-16T16:23:14;6.70;99.90
29721;DHT22;23665;51.044;3.748;2023-01-16T16:26:02;6.70;99.90
29721;DHT22;23665;51.044;3.748;2023-01-16T16:34:01;6.50;99.90
29721;DHT22;23665;51.044;3.748;2023-01-16T16:36:29;6.50;99.90
29721;DHT22;23665;51.044;3.748;2023-01-16T16:38:56;6.50;99.90
29721;DHT22;23665;51.044;3.748;2023-01-16T16:44:23;6.50;99.90
29721;DHT22;23665;51.044;3.748;2023-01-16T16:46:50;6.50;99.90
29721;DHT22;23665;51.044;3.748;2023-01-16T16:51:41;6.20;99.90
29721;DHT22;23665;51.044;3.748;2023-01-16T16:54:16;6.10;99.90
29721;DHT22;23665;51.044;3.748;2023-01-16T16:56:52;5.90;99.90
29721;DHT22;23665;51.044;3.748;2023-01-16T16:59:22;5.70;99.90
29721;DHT22;23665;51.044;3.748;2023-01-16T17:01:57;5.70;99.90
29721;DHT22;23665;51.044;3.748;2023-01-16T17:04:29;5.80;99.90
29721;DHT22;23665;51.044;3.748;2023-01-16T17:06:54;5.80;99.90
29721;DHT22;23665;51.044;3.748;2023-01-16T17:09:20;5.80;99.90
29721;DHT22;23665;51.044;3.748;2023-01-16T17:11:48;5.90;99.90
29721;DHT22;23665;51.044;3.748;2023-01-16T17:14:13;5.90;99.90
29721;DHT22;23665;51.044;3.748;2023-01-16T17:16:39;6.00;99.90
29721;DHT22;23665;51.044;3.748;2023-01-16T17:19:29;6.00;99.90
29721;DHT22;23665;51.044;3.748;2023-01-16T17:21:55;6.10;99.90
29721;DHT22;23665;51.044;3.748;2023-01-16T17:24:21;6.20;99.90
29721;DHT22;23665;51.044;3.748;2023-01-16T17:26:47;6.10;99.90
29721;DHT22;23665;51.044;3.748;2023-01-16T17:29:12;6.20;99.90
29721;DHT22;23665;51.044;3.748;2023-01-16T17:31:41;6.30;99.90
29721;DHT22;23665;51.044;3.748;2023-01-16T17:34:18;6.40;99.90
29721;DHT22;23665;51.044;3.748;2023-01-16T17:36:45;6.40;99.90
29721;DHT22;23665;51.044;3.748;2023-01-16T17:39:17;6.50;99.90
29721;DHT22;23665;51.044;3.748;2023-01-16T17:41:42;6.50;99.90
29721;DHT22;23665;51.044;3.748;2023-01-16T17:44:22;6.50;99.90
29721;DHT22;23665;51.044;3.748;2023-01-16T17:47:08;6.40;99.90
29721;DHT22;23665;51.044;3.748;2023-01-16T17:49:34;6.40;99.90
29721;DHT22;23665;51.044;3.748;2023-01-16T17:52:20;6.40;99.90
29721;DHT22;23665;51.044;3.748;2023-01-16T17:54:46;6.40;99.90
29721;DHT22;23665;51.044;3.748;2023-01-16T17:57:30;6.40;99.90
29721;DHT22;23665;51.044;3.748;2023-01-16T17:59:57;6.50;99.90
29721;DHT22;23665;51.044;3.748;2023-01-16T18:02:23;6.40;99.90
29721;DHT22;23665;51.044;3.748;2023-01-16T18:04:49;6.30;99.90
29721;DHT22;23665;51.044;3.748;2023-01-16T18:07:18;6.50;99.90
29721;DHT22;23665;51.044;3.748;2023-01-16T18:09:43;6.50;99.90
29721;DHT22;23665;51.044;3.748;2023-01-16T18:12:10;6.60;99.90
29721;DHT22;23665;51.044;3.748;2023-01-16T18:14:54;6.50;99.90
29721;DHT22;23665;51.044;3.748;2023-01-16T18:17:38;6.60;99.90
29721;DHT22;23665;51.044;3.748;2023-01-16T18:20:04;6.50;99.90
29721;DHT22;23665;51.044;3.748;2023-01-16T18:22:32;6.50;99.90
29721;DHT22;23665;51.044;3.748;2023-01-16T18:25:00;6.70;99.90
29721;DHT22;23665;51.044;3.748;2023-01-16T18:27:26;6.70;99.90
29721;DHT22;23665;51.044;3.748;2023-01-16T18:29:52;6.80;99.90
29721;DHT22;23665;51.044;3.748;2023-01-16T18:32:18;6.70;99.90
29721;DHT22;23665;51.044;3.748;2023-01-16T18:34:59;6.70;99.90
29721;DHT22;23665;51.044;3.748;2023-01-16T18:40:01;6.60;99.90
29721;DHT22;23665;51.044;3.748;2023-01-16T18:42:45;6.60;99.90
29721;DHT22;23665;51.044;3.748;2023-01-16T18:45:30;6.40;99.90